sensor_id;sensor_type;location;lat;lon;timestamp;P1;durP1;ratioP1;P2;durP2;ratioP2
26106;SDS011;13866;50.748;12.630;2023-04-25T00:01:54;6.73;;;6.10;;
26106;SDS011;13866;50.748;12.630;2023-04-25T00:04:21;6.50;;;6.30;;
26106;SDS011;13866;50.748;12.630;2023-04-25T00:06:46;7.50;;;6.83;;
26106;SDS011;13866;50.748;12.630;2023-04-25T00:09:12;6.63;;;6.40;;
26106;SDS011;13866;50.748;12.630;2023-04-25T00:11:38;8.60;;;7.90;;
26106;SDS011;13866;50.748;12.630;2023-04-25T00:14:04;8.60;;;6.80;;
26106;SDS011;13866;50.748;12.630;2023-04-25T00:16:31;7.00;;;6.37;;
26106;SDS011;13866;50.748;12.630;2023-04-25T00:18:58;6.70;;;6.40;;
26106;SDS011;13866;50.748;12.630;2023-04-25T00:21:24;8.40;;;7.70;;
26106;SDS011;13866;50.748;12.630;2023-04-25T00:23:50;7.77;;;7.10;;
26106;SDS011;13866;50.748;12.630;2023-04-25T00:26:17;7.90;;;7.30;;
26106;SDS011;13866;50.748;12.630;2023-04-25T00:28:43;7.50;;;7.00;;
26106;SDS011;13866;50.748;12.630;2023-04-25T00:31:08;7.93;;;7.53;;
26106;SDS011;13866;50.748;12.630;2023-04-25T00:33:34;7.73;;;7.17;;
26106;SDS011;13866;50.748;12.630;2023-04-25T00:35:59;7.67;;;7.17;;
26106;SDS011;13866;50.748;12.630;2023-04-25T00:38:25;8.33;;;7.80;;
26106;SDS011;13866;50.748;12.630;2023-04-25T00:40:50;7.47;;;6.43;;
26106;SDS011;13866;50.748;12.630;2023-04-25T00:43:17;6.70;;;6.40;;
26106;SDS011;13866;50.748;12.630;2023-04-25T00:45:43;7.70;;;7.20;;
26106;SDS011;13866;50.748;12.630;2023-04-25T00:48:11;7.80;;;7.33;;
26106;SDS011;13866;50.748;12.630;2023-04-25T00:50:39;8.27;;;7.57;;
26106;SDS011;13866;50.748;12.630;2023-04-25T00:53:05;8.40;;;7.80;;
26106;SDS011;13866;50.748;12.630;2023-04-25T00:55:31;8.50;;;7.80;;
26106;SDS011;13866;50.748;12.630;2023-04-25T00:57:57;8.00;;;7.40;;
26106;SDS011;13866;50.748;12.630;2023-04-25T01:00:23;7.73;;;7.07;;
26106;SDS011;13866;50.748;12.630;2023-04-25T01:02:48;12.60;;;9.80;;
26106;SDS011;13866;50.748;12.630;2023-04-25T01:05:15;7.40;;;6.90;;
26106;SDS011;13866;50.748;12.630;2023-04-25T01:07:40;8.77;;;8.00;;
26106;SDS011;13866;50.748;12.630;2023-04-25T01:10:06;8.10;;;7.60;;
26106;SDS011;13866;50.748;12.630;2023-04-25T01:12:32;8.40;;;7.97;;
26106;SDS011;13866;50.748;12.630;2023-04-25T01:14:58;8.53;;;7.60;;
26106;SDS011;13866;50.748;12.630;2023-04-25T01:17:24;8.30;;;7.87;;
26106;SDS011;13866;50.748;12.630;2023-04-25T01:19:49;7.70;;;7.17;;
26106;SDS011;13866;50.748;12.630;2023-04-25T01:22:15;8.80;;;8.03;;
26106;SDS011;13866;50.748;12.630;2023-04-25T01:24:41;7.73;;;7.33;;
26106;SDS011;13866;50.748;12.630;2023-04-25T01:27:07;8.30;;;7.60;;
26106;SDS011;13866;50.748;12.630;2023-04-25T01:29:34;10.00;;;8.23;;
26106;SDS011;13866;50.748;12.630;2023-04-25T01:32:00;8.17;;;7.77;;
26106;SDS011;13866;50.748;12.630;2023-04-25T01:34:26;11.23;;;9.17;;
26106;SDS011;13866;50.748;12.630;2023-04-25T01:36:52;7.57;;;7.00;;
26106;SDS011;13866;50.748;12.630;2023-04-25T01:39:18;7.47;;;7.03;;
26106;SDS011;13866;50.748;12.630;2023-04-25T01:41:45;10.13;;;7.93;;
26106;SDS011;13866;50.748;12.630;2023-04-25T01:44:12;8.90;;;8.10;;
26106;SDS011;13866;50.748;12.630;2023-04-25T01:46:38;7.33;;;6.93;;
26106;SDS011;13866;50.748;12.630;2023-04-25T01:49:04;8.60;;;8.00;;
26106;SDS011;13866;50.748;12.630;2023-04-25T01:51:30;7.80;;;7.20;;
26106;SDS011;13866;50.748;12.630;2023-04-25T01:53:56;7.70;;;7.30;;
26106;SDS011;13866;50.748;12.630;2023-04-25T01:56:22;9.20;;;8.57;;
26106;SDS011;13866;50.748;12.630;2023-04-25T01:58:48;8.03;;;7.43;;
26106;SDS011;13866;50.748;12.630;2023-04-25T02:01:13;8.40;;;7.70;;
26106;SDS011;13866;50.748;12.630;2023-04-25T02:03:39;7.90;;;7.30;;
26106;SDS011;13866;50.748;12.630;2023-04-25T02:06:05;8.80;;;8.20;;
26106;SDS011;13866;50.748;12.630;2023-04-25T02:08:30;9.90;;;8.90;;
26106;SDS011;13866;50.748;12.630;2023-04-25T02:10:56;8.57;;;7.97;;
26106;SDS011;13866;50.748;12.630;2023-04-25T02:13:22;7.63;;;7.27;;
26106;SDS011;13866;50.748;12.630;2023-04-25T02:15:48;8.20;;;7.50;;
26106;SDS011;13866;50.748;12.630;2023-04-25T02:18:13;8.23;;;7.53;;
26106;SDS011;13866;50.748;12.630;2023-04-25T02:20:41;12.27;;;9.37;;
26106;SDS011;13866;50.748;12.630;2023-04-25T02:23:07;10.47;;;9.67;;
26106;SDS011;13866;50.748;12.630;2023-04-25T02:25:32;7.60;;;7.30;;
26106;SDS011;13866;50.748;12.630;2023-04-25T02:27:58;7.77;;;7.27;;
26106;SDS011;13866;50.748;12.630;2023-04-25T02:30:23;11.33;;;10.13;;
26106;SDS011;13866;50.748;12.630;2023-04-25T02:32:49;10.90;;;9.00;;
26106;SDS011;13866;50.748;12.630;2023-04-25T02:35:14;9.23;;;8.73;;
26106;SDS011;13866;50.748;12.630;2023-04-25T02:37:40;7.97;;;7.63;;
26106;SDS011;13866;50.748;12.630;2023-04-25T02:40:06;9.67;;;9.07;;
26106;SDS011;13866;50.748;12.630;2023-04-25T02:42:33;8.67;;;8.20;;
26106;SDS011;13866;50.748;12.630;2023-04-25T02:44:58;8.77;;;8.13;;
26106;SDS011;13866;50.748;12.630;2023-04-25T02:47:24;9.27;;;8.70;;
26106;SDS011;13866;50.748;12.630;2023-04-25T02:49:49;8.90;;;8.20;;
26106;SDS011;13866;50.748;12.630;2023-04-25T02:52:15;10.03;;;9.33;;
26106;SDS011;13866;50.748;12.630;2023-04-25T02:54:40;9.20;;;8.70;;
26106;SDS011;13866;50.748;12.630;2023-04-25T02:57:06;9.20;;;8.60;;
26106;SDS011;13866;50.748;12.630;2023-04-25T02:59:32;8.20;;;7.70;;
26106;SDS011;13866;50.748;12.630;2023-04-25T03:01:58;9.30;;;8.50;;
26106;SDS011;13866;50.748;12.630;2023-04-25T03:04:23;9.37;;;8.57;;
26106;SDS011;13866;50.748;12.630;2023-04-25T03:06:49;10.07;;;9.30;;
26106;SDS011;13866;50.748;12.630;2023-04-25T03:09:15;9.00;;;8.60;;
26106;SDS011;13866;50.748;12.630;2023-04-25T03:11:41;9.17;;;8.67;;
26106;SDS011;13866;50.748;12.630;2023-04-25T03:14:06;8.93;;;8.27;;
26106;SDS011;13866;50.748;12.630;2023-04-25T03:16:32;7.83;;;7.53;;
26106;SDS011;13866;50.748;12.630;2023-04-25T03:18:57;8.27;;;7.87;;
26106;SDS011;13866;50.748;12.630;2023-04-25T03:21:23;8.70;;;8.20;;
26106;SDS011;13866;50.748;12.630;2023-04-25T03:23:48;8.90;;;8.33;;
26106;SDS011;13866;50.748;12.630;2023-04-25T03:26:14;9.33;;;8.53;;
26106;SDS011;13866;50.748;12.630;2023-04-25T03:28:40;7.67;;;7.40;;
26106;SDS011;13866;50.748;12.630;2023-04-25T03:31:06;9.20;;;8.43;;
26106;SDS011;13866;50.748;12.630;2023-04-25T03:33:31;8.17;;;7.57;;
26106;SDS011;13866;50.748;12.630;2023-04-25T03:35:57;8.17;;;7.80;;
26106;SDS011;13866;50.748;12.630;2023-04-25T03:38:22;8.33;;;7.60;;
26106;SDS011;13866;50.748;12.630;2023-04-25T03:40:48;7.37;;;6.87;;
26106;SDS011;13866;50.748;12.630;2023-04-25T03:43:15;7.00;;;6.70;;
26106;SDS011;13866;50.748;12.630;2023-04-25T03:45:41;8.40;;;6.63;;
26106;SDS011;13866;50.748;12.630;2023-04-25T03:48:06;7.53;;;7.13;;
26106;SDS011;13866;50.748;12.630;2023-04-25T03:50:32;9.40;;;8.47;;
26106;SDS011;13866;50.748;12.630;2023-04-25T03:52:57;7.93;;;7.23;;
26106;SDS011;13866;50.748;12.630;2023-04-25T03:55:23;11.77;;;7.30;;
26106;SDS011;13866;50.748;12.630;2023-04-25T03:57:48;6.80;;;6.50;;
26106;SDS011;13866;50.748;12.630;2023-04-25T04:00:14;9.97;;;7.50;;
26106;SDS011;13866;50.748;12.630;2023-04-25T04:02:40;6.83;;;6.63;;
26106;SDS011;13866;50.748;12.630;2023-04-25T04:05:05;8.97;;;7.77;;
26106;SDS011;13866;50.748;12.630;2023-04-25T04:07:31;7.97;;;7.27;;
26106;SDS011;13866;50.748;12.630;2023-04-25T04:09:58;9.60;;;7.50;;
26106;SDS011;13866;50.748;12.630;2023-04-25T04:12:23;7.93;;;7.43;;
26106;SDS011;13866;50.748;12.630;2023-04-25T04:14:49;7.00;;;6.57;;
26106;SDS011;13866;50.748;12.630;2023-04-25T04:17:14;8.00;;;6.20;;
26106;SDS011;13866;50.748;12.630;2023-04-25T04:19:40;6.80;;;6.50;;
26106;SDS011;13866;50.748;12.630;2023-04-25T04:22:05;18.60;;;7.27;;
26106;SDS011;13866;50.748;12.630;2023-04-25T04:24:31;7.63;;;7.07;;
26106;SDS011;13866;50.748;12.630;2023-04-25T04:26:57;6.47;;;6.17;;
26106;SDS011;13866;50.748;12.630;2023-04-25T04:29:23;6.30;;;5.90;;
26106;SDS011;13866;50.748;12.630;2023-04-25T04:31:49;5.87;;;5.47;;
26106;SDS011;13866;50.748;12.630;2023-04-25T04:34:16;5.47;;;5.37;;
26106;SDS011;13866;50.748;12.630;2023-04-25T04:36:43;6.30;;;5.93;;
26106;SDS011;13866;50.748;12.630;2023-04-25T04:39:10;6.23;;;5.87;;
26106;SDS011;13866;50.748;12.630;2023-04-25T04:41:37;9.30;;;6.80;;
26106;SDS011;13866;50.748;12.630;2023-04-25T04:44:02;6.60;;;5.60;;
26106;SDS011;13866;50.748;12.630;2023-04-25T04:46:28;7.27;;;6.50;;
26106;SDS011;13866;50.748;12.630;2023-04-25T04:48:55;9.07;;;5.80;;
26106;SDS011;13866;50.748;12.630;2023-04-25T04:51:21;6.60;;;6.20;;
26106;SDS011;13866;50.748;12.630;2023-04-25T04:53:46;5.17;;;4.97;;
26106;SDS011;13866;50.748;12.630;2023-04-25T04:56:12;5.90;;;5.03;;
26106;SDS011;13866;50.748;12.630;2023-04-25T04:58:37;6.50;;;5.97;;
26106;SDS011;13866;50.748;12.630;2023-04-25T05:01:03;5.87;;;5.47;;
26106;SDS011;13866;50.748;12.630;2023-04-25T05:03:28;5.70;;;5.20;;
26106;SDS011;13866;50.748;12.630;2023-04-25T05:05:54;6.53;;;4.80;;
26106;SDS011;13866;50.748;12.630;2023-04-25T05:08:19;5.97;;;5.50;;
26106;SDS011;13866;50.748;12.630;2023-04-25T05:10:45;10.00;;;5.60;;
26106;SDS011;13866;50.748;12.630;2023-04-25T05:13:11;6.33;;;5.67;;
26106;SDS011;13866;50.748;12.630;2023-04-25T05:15:36;6.20;;;5.73;;
26106;SDS011;13866;50.748;12.630;2023-04-25T05:18:02;8.17;;;4.77;;
26106;SDS011;13866;50.748;12.630;2023-04-25T05:20:27;6.07;;;5.63;;
26106;SDS011;13866;50.748;12.630;2023-04-25T05:22:53;6.17;;;5.63;;
26106;SDS011;13866;50.748;12.630;2023-04-25T05:25:18;6.33;;;5.80;;
26106;SDS011;13866;50.748;12.630;2023-04-25T05:27:44;6.30;;;5.90;;
26106;SDS011;13866;50.748;12.630;2023-04-25T05:30:09;6.43;;;5.60;;
26106;SDS011;13866;50.748;12.630;2023-04-25T05:32:35;6.60;;;5.40;;
26106;SDS011;13866;50.748;12.630;2023-04-25T05:35:01;5.60;;;5.40;;
26106;SDS011;13866;50.748;12.630;2023-04-25T05:37:27;4.87;;;4.67;;
26106;SDS011;13866;50.748;12.630;2023-04-25T05:39:55;7.80;;;4.97;;
26106;SDS011;13866;50.748;12.630;2023-04-25T05:42:20;5.20;;;4.90;;
26106;SDS011;13866;50.748;12.630;2023-04-25T05:44:46;7.30;;;5.87;;
26106;SDS011;13866;50.748;12.630;2023-04-25T05:47:11;6.03;;;5.10;;
26106;SDS011;13866;50.748;12.630;2023-04-25T05:49:37;5.03;;;4.67;;
26106;SDS011;13866;50.748;12.630;2023-04-25T05:52:02;7.57;;;5.37;;
26106;SDS011;13866;50.748;12.630;2023-04-25T05:54:28;10.37;;;5.73;;
26106;SDS011;13866;50.748;12.630;2023-04-25T05:56:53;7.13;;;4.80;;
26106;SDS011;13866;50.748;12.630;2023-04-25T05:59:19;5.57;;;5.13;;
26106;SDS011;13866;50.748;12.630;2023-04-25T06:01:44;7.20;;;6.57;;
26106;SDS011;13866;50.748;12.630;2023-04-25T06:04:11;6.63;;;6.13;;
26106;SDS011;13866;50.748;12.630;2023-04-25T06:06:36;6.50;;;5.97;;
26106;SDS011;13866;50.748;12.630;2023-04-25T06:09:02;6.03;;;5.53;;
26106;SDS011;13866;50.748;12.630;2023-04-25T06:11:27;7.37;;;6.70;;
26106;SDS011;13866;50.748;12.630;2023-04-25T06:13:53;7.33;;;6.60;;
26106;SDS011;13866;50.748;12.630;2023-04-25T06:16:19;7.23;;;6.60;;
26106;SDS011;13866;50.748;12.630;2023-04-25T06:18:44;6.00;;;5.50;;
26106;SDS011;13866;50.748;12.630;2023-04-25T06:21:10;5.50;;;5.10;;
26106;SDS011;13866;50.748;12.630;2023-04-25T06:23:35;5.33;;;5.00;;
26106;SDS011;13866;50.748;12.630;2023-04-25T06:26:00;5.90;;;5.60;;
26106;SDS011;13866;50.748;12.630;2023-04-25T06:28:26;6.20;;;5.70;;
26106;SDS011;13866;50.748;12.630;2023-04-25T06:30:51;5.63;;;5.43;;
26106;SDS011;13866;50.748;12.630;2023-04-25T06:33:17;10.90;;;6.13;;
26106;SDS011;13866;50.748;12.630;2023-04-25T06:35:42;6.00;;;5.73;;
26106;SDS011;13866;50.748;12.630;2023-04-25T06:38:08;4.67;;;4.57;;
26106;SDS011;13866;50.748;12.630;2023-04-25T06:40:34;6.73;;;6.37;;
26106;SDS011;13866;50.748;12.630;2023-04-25T06:42:59;9.27;;;6.63;;
26106;SDS011;13866;50.748;12.630;2023-04-25T06:45:25;9.23;;;6.37;;
26106;SDS011;13866;50.748;12.630;2023-04-25T06:47:50;6.77;;;6.10;;
26106;SDS011;13866;50.748;12.630;2023-04-25T06:50:15;6.57;;;5.80;;
26106;SDS011;13866;50.748;12.630;2023-04-25T06:52:41;5.90;;;5.63;;
26106;SDS011;13866;50.748;12.630;2023-04-25T06:55:06;5.80;;;5.50;;
26106;SDS011;13866;50.748;12.630;2023-04-25T06:57:32;6.00;;;5.47;;
26106;SDS011;13866;50.748;12.630;2023-04-25T07:00:10;5.83;;;5.10;;
26106;SDS011;13866;50.748;12.630;2023-04-25T07:02:36;5.17;;;4.93;;
26106;SDS011;13866;50.748;12.630;2023-04-25T07:05:02;5.73;;;5.23;;
26106;SDS011;13866;50.748;12.630;2023-04-25T07:07:29;4.90;;;4.73;;
26106;SDS011;13866;50.748;12.630;2023-04-25T07:09:55;6.27;;;5.77;;
26106;SDS011;13866;50.748;12.630;2023-04-25T07:12:21;7.70;;;4.40;;
26106;SDS011;13866;50.748;12.630;2023-04-25T07:14:46;5.20;;;5.00;;
26106;SDS011;13866;50.748;12.630;2023-04-25T07:17:12;7.27;;;4.77;;
26106;SDS011;13866;50.748;12.630;2023-04-25T07:19:38;5.37;;;4.87;;
26106;SDS011;13866;50.748;12.630;2023-04-25T07:22:04;5.50;;;5.10;;
26106;SDS011;13866;50.748;12.630;2023-04-25T07:24:30;5.87;;;5.43;;
26106;SDS011;13866;50.748;12.630;2023-04-25T07:26:56;7.07;;;5.00;;
26106;SDS011;13866;50.748;12.630;2023-04-25T07:29:22;5.10;;;4.90;;
26106;SDS011;13866;50.748;12.630;2023-04-25T07:31:48;6.20;;;4.50;;
26106;SDS011;13866;50.748;12.630;2023-04-25T07:34:14;5.73;;;5.33;;
26106;SDS011;13866;50.748;12.630;2023-04-25T07:36:40;4.63;;;4.60;;
26106;SDS011;13866;50.748;12.630;2023-04-25T07:39:06;5.00;;;4.63;;
26106;SDS011;13866;50.748;12.630;2023-04-25T07:41:31;8.30;;;5.17;;
26106;SDS011;13866;50.748;12.630;2023-04-25T07:43:57;5.80;;;5.43;;
26106;SDS011;13866;50.748;12.630;2023-04-25T07:46:23;6.10;;;4.97;;
26106;SDS011;13866;50.748;12.630;2023-04-25T07:48:49;5.10;;;4.60;;
26106;SDS011;13866;50.748;12.630;2023-04-25T07:51:14;5.67;;;5.47;;
26106;SDS011;13866;50.748;12.630;2023-04-25T07:53:40;5.30;;;4.80;;
26106;SDS011;13866;50.748;12.630;2023-04-25T07:56:05;5.23;;;4.90;;
26106;SDS011;13866;50.748;12.630;2023-04-25T07:58:31;5.33;;;5.13;;
26106;SDS011;13866;50.748;12.630;2023-04-25T08:00:57;10.80;;;5.27;;
26106;SDS011;13866;50.748;12.630;2023-04-25T08:03:22;5.90;;;5.60;;
26106;SDS011;13866;50.748;12.630;2023-04-25T08:05:47;6.43;;;5.50;;
26106;SDS011;13866;50.748;12.630;2023-04-25T08:08:13;6.13;;;5.70;;
26106;SDS011;13866;50.748;12.630;2023-04-25T08:10:38;8.07;;;5.73;;
26106;SDS011;13866;50.748;12.630;2023-04-25T08:13:04;7.80;;;5.90;;
26106;SDS011;13866;50.748;12.630;2023-04-25T08:15:32;4.73;;;4.63;;
26106;SDS011;13866;50.748;12.630;2023-04-25T08:17:58;5.17;;;4.50;;
26106;SDS011;13866;50.748;12.630;2023-04-25T08:20:39;6.70;;;5.00;;
26106;SDS011;13866;50.748;12.630;2023-04-25T08:23:06;5.07;;;4.70;;
26106;SDS011;13866;50.748;12.630;2023-04-25T08:25:32;4.50;;;4.50;;
26106;SDS011;13866;50.748;12.630;2023-04-25T08:27:57;5.27;;;4.93;;
26106;SDS011;13866;50.748;12.630;2023-04-25T08:30:24;7.50;;;6.40;;
26106;SDS011;13866;50.748;12.630;2023-04-25T08:32:50;5.40;;;4.90;;
26106;SDS011;13866;50.748;12.630;2023-04-25T08:35:15;5.30;;;4.90;;
26106;SDS011;13866;50.748;12.630;2023-04-25T08:37:42;6.07;;;5.77;;
26106;SDS011;13866;50.748;12.630;2023-04-25T08:40:07;5.93;;;5.60;;
26106;SDS011;13866;50.748;12.630;2023-04-25T08:42:36;5.90;;;5.43;;
26106;SDS011;13866;50.748;12.630;2023-04-25T08:45:02;6.90;;;5.50;;
26106;SDS011;13866;50.748;12.630;2023-04-25T08:47:28;5.70;;;5.27;;
26106;SDS011;13866;50.748;12.630;2023-04-25T08:49:57;5.60;;;5.40;;
26106;SDS011;13866;50.748;12.630;2023-04-25T08:52:25;5.70;;;5.13;;
26106;SDS011;13866;50.748;12.630;2023-04-25T08:54:55;6.00;;;5.60;;
26106;SDS011;13866;50.748;12.630;2023-04-25T08:57:22;14.00;;;6.10;;
26106;SDS011;13866;50.748;12.630;2023-04-25T08:59:48;7.70;;;6.70;;
26106;SDS011;13866;50.748;12.630;2023-04-25T09:02:14;16.43;;;6.33;;
26106;SDS011;13866;50.748;12.630;2023-04-25T09:04:44;5.50;;;5.20;;
26106;SDS011;13866;50.748;12.630;2023-04-25T09:07:10;6.83;;;5.30;;
26106;SDS011;13866;50.748;12.630;2023-04-25T09:09:35;7.63;;;6.50;;
26106;SDS011;13866;50.748;12.630;2023-04-25T09:12:01;5.30;;;5.20;;
26106;SDS011;13866;50.748;12.630;2023-04-25T09:14:27;6.10;;;5.90;;
26106;SDS011;13866;50.748;12.630;2023-04-25T09:19:22;5.60;;;5.30;;
26106;SDS011;13866;50.748;12.630;2023-04-25T09:21:48;3.33;;;3.33;;
26106;SDS011;13866;50.748;12.630;2023-04-25T09:24:14;3.13;;;2.83;;
26106;SDS011;13866;50.748;12.630;2023-04-25T09:26:40;2.80;;;2.70;;
26106;SDS011;13866;50.748;12.630;2023-04-25T09:29:06;6.20;;;3.47;;
26106;SDS011;13866;50.748;12.630;2023-04-25T09:31:32;3.37;;;3.10;;
26106;SDS011;13866;50.748;12.630;2023-04-25T09:33:59;3.67;;;3.57;;
26106;SDS011;13866;50.748;12.630;2023-04-25T09:36:37;3.83;;;3.63;;
26106;SDS011;13866;50.748;12.630;2023-04-25T09:39:03;5.47;;;5.20;;
26106;SDS011;13866;50.748;12.630;2023-04-25T09:41:40;4.87;;;4.27;;
26106;SDS011;13866;50.748;12.630;2023-04-25T09:44:06;5.20;;;4.90;;
26106;SDS011;13866;50.748;12.630;2023-04-25T09:46:34;5.80;;;5.50;;
26106;SDS011;13866;50.748;12.630;2023-04-25T09:49:05;5.33;;;5.13;;
26106;SDS011;13866;50.748;12.630;2023-04-25T09:51:32;5.30;;;5.00;;
26106;SDS011;13866;50.748;12.630;2023-04-25T09:53:57;5.53;;;5.33;;
26106;SDS011;13866;50.748;12.630;2023-04-25T09:56:22;6.10;;;5.67;;
26106;SDS011;13866;50.748;12.630;2023-04-25T09:58:49;6.43;;;5.93;;
26106;SDS011;13866;50.748;12.630;2023-04-25T10:01:18;4.80;;;4.70;;
26106;SDS011;13866;50.748;12.630;2023-04-25T10:03:45;5.67;;;5.20;;
26106;SDS011;13866;50.748;12.630;2023-04-25T10:06:17;5.33;;;5.13;;
26106;SDS011;13866;50.748;12.630;2023-04-25T10:08:44;6.20;;;5.60;;
26106;SDS011;13866;50.748;12.630;2023-04-25T10:11:11;6.33;;;5.87;;
26106;SDS011;13866;50.748;12.630;2023-04-25T10:13:49;6.00;;;5.80;;
26106;SDS011;13866;50.748;12.630;2023-04-25T10:16:15;5.23;;;4.83;;
26106;SDS011;13866;50.748;12.630;2023-04-25T10:18:41;5.10;;;4.90;;
26106;SDS011;13866;50.748;12.630;2023-04-25T10:21:06;5.63;;;5.43;;
26106;SDS011;13866;50.748;12.630;2023-04-25T10:23:32;5.63;;;5.33;;
26106;SDS011;13866;50.748;12.630;2023-04-25T10:25:59;5.70;;;5.47;;
26106;SDS011;13866;50.748;12.630;2023-04-25T10:28:25;5.77;;;5.47;;
26106;SDS011;13866;50.748;12.630;2023-04-25T10:33:33;5.83;;;5.30;;
26106;SDS011;13866;50.748;12.630;2023-04-25T10:39:02;8.20;;;6.30;;
26106;SDS011;13866;50.748;12.630;2023-04-25T10:41:45;6.93;;;6.27;;
26106;SDS011;13866;50.748;12.630;2023-04-25T10:44:12;7.07;;;6.70;;
26106;SDS011;13866;50.748;12.630;2023-04-25T10:46:39;6.30;;;5.90;;
26106;SDS011;13866;50.748;12.630;2023-04-25T10:49:05;5.80;;;5.57;;
26106;SDS011;13866;50.748;12.630;2023-04-25T10:51:33;7.17;;;6.73;;
26106;SDS011;13866;50.748;12.630;2023-04-25T10:54:02;5.87;;;5.33;;
26106;SDS011;13866;50.748;12.630;2023-04-25T10:56:32;6.27;;;5.60;;
26106;SDS011;13866;50.748;12.630;2023-04-25T10:59:12;5.80;;;5.40;;
26106;SDS011;13866;50.748;12.630;2023-04-25T11:01:41;4.40;;;4.30;;
26106;SDS011;13866;50.748;12.630;2023-04-25T11:04:20;4.10;;;4.10;;
26106;SDS011;13866;50.748;12.630;2023-04-25T11:07:07;5.43;;;5.13;;
26106;SDS011;13866;50.748;12.630;2023-04-25T11:09:53;5.50;;;5.20;;
26106;SDS011;13866;50.748;12.630;2023-04-25T11:12:19;5.23;;;5.10;;
26106;SDS011;13866;50.748;12.630;2023-04-25T11:14:44;5.20;;;5.10;;
26106;SDS011;13866;50.748;12.630;2023-04-25T11:17:10;5.07;;;4.97;;
26106;SDS011;13866;50.748;12.630;2023-04-25T11:19:36;10.90;;;4.97;;
26106;SDS011;13866;50.748;12.630;2023-04-25T11:22:02;5.00;;;4.73;;
26106;SDS011;13866;50.748;12.630;2023-04-25T11:24:31;4.37;;;4.17;;
26106;SDS011;13866;50.748;12.630;2023-04-25T11:26:59;5.43;;;5.13;;
26106;SDS011;13866;50.748;12.630;2023-04-25T11:29:30;4.77;;;4.43;;
26106;SDS011;13866;50.748;12.630;2023-04-25T11:31:57;3.77;;;3.53;;
26106;SDS011;13866;50.748;12.630;2023-04-25T11:34:23;5.53;;;5.37;;
26106;SDS011;13866;50.748;12.630;2023-04-25T11:36:50;5.07;;;4.93;;
26106;SDS011;13866;50.748;12.630;2023-04-25T11:39:17;8.93;;;8.00;;
26106;SDS011;13866;50.748;12.630;2023-04-25T11:41:46;8.20;;;7.60;;
26106;SDS011;13866;50.748;12.630;2023-04-25T11:44:15;8.70;;;7.90;;
26106;SDS011;13866;50.748;12.630;2023-04-25T11:46:41;9.67;;;8.90;;
26106;SDS011;13866;50.748;12.630;2023-04-25T11:49:07;8.73;;;8.10;;
26106;SDS011;13866;50.748;12.630;2023-04-25T11:51:40;16.10;;;8.50;;
26106;SDS011;13866;50.748;12.630;2023-04-25T11:54:09;8.93;;;8.10;;
26106;SDS011;13866;50.748;12.630;2023-04-25T11:56:35;8.67;;;7.77;;
26106;SDS011;13866;50.748;12.630;2023-04-25T11:59:01;9.13;;;8.53;;
26106;SDS011;13866;50.748;12.630;2023-04-25T12:01:29;14.70;;;10.03;;
26106;SDS011;13866;50.748;12.630;2023-04-25T12:04:09;14.43;;;7.87;;
26106;SDS011;13866;50.748;12.630;2023-04-25T12:06:45;9.50;;;8.73;;
26106;SDS011;13866;50.748;12.630;2023-04-25T12:09:13;9.43;;;8.70;;
26106;SDS011;13866;50.748;12.630;2023-04-25T12:11:41;15.43;;;9.10;;
26106;SDS011;13866;50.748;12.630;2023-04-25T12:14:08;11.40;;;9.43;;
26106;SDS011;13866;50.748;12.630;2023-04-25T12:16:41;10.03;;;9.13;;
26106;SDS011;13866;50.748;12.630;2023-04-25T12:19:13;11.00;;;8.70;;
26106;SDS011;13866;50.748;12.630;2023-04-25T12:21:40;8.90;;;8.47;;
26106;SDS011;13866;50.748;12.630;2023-04-25T12:27:04;9.53;;;9.00;;
26106;SDS011;13866;50.748;12.630;2023-04-25T12:29:33;9.87;;;8.60;;
26106;SDS011;13866;50.748;12.630;2023-04-25T12:31:59;9.40;;;8.53;;
26106;SDS011;13866;50.748;12.630;2023-04-25T12:34:26;9.60;;;8.67;;
26106;SDS011;13866;50.748;12.630;2023-04-25T12:36:52;9.60;;;8.67;;
26106;SDS011;13866;50.748;12.630;2023-04-25T12:39:19;9.13;;;8.60;;
26106;SDS011;13866;50.748;12.630;2023-04-25T12:41:48;9.03;;;8.40;;
26106;SDS011;13866;50.748;12.630;2023-04-25T12:44:15;8.10;;;7.50;;
26106;SDS011;13866;50.748;12.630;2023-04-25T12:46:40;8.40;;;7.37;;
26106;SDS011;13866;50.748;12.630;2023-04-25T12:49:06;11.80;;;6.80;;
26106;SDS011;13866;50.748;12.630;2023-04-25T12:51:33;10.33;;;7.00;;
26106;SDS011;13866;50.748;12.630;2023-04-25T12:53:59;6.20;;;5.90;;
26106;SDS011;13866;50.748;12.630;2023-04-25T12:56:26;9.70;;;6.40;;
26106;SDS011;13866;50.748;12.630;2023-04-25T12:58:52;7.13;;;5.87;;
26106;SDS011;13866;50.748;12.630;2023-04-25T13:01:18;5.90;;;5.40;;
26106;SDS011;13866;50.748;12.630;2023-04-25T13:03:44;10.90;;;5.00;;
26106;SDS011;13866;50.748;12.630;2023-04-25T13:06:09;7.07;;;4.60;;
26106;SDS011;13866;50.748;12.630;2023-04-25T13:08:35;6.07;;;5.50;;
26106;SDS011;13866;50.748;12.630;2023-04-25T13:11:01;5.60;;;5.20;;
26106;SDS011;13866;50.748;12.630;2023-04-25T13:13:28;6.20;;;5.80;;
26106;SDS011;13866;50.748;12.630;2023-04-25T13:15:54;6.80;;;6.20;;
26106;SDS011;13866;50.748;12.630;2023-04-25T13:18:19;6.13;;;5.37;;
26106;SDS011;13866;50.748;12.630;2023-04-25T13:20:45;6.17;;;5.67;;
26106;SDS011;13866;50.748;12.630;2023-04-25T13:23:11;5.97;;;5.57;;
26106;SDS011;13866;50.748;12.630;2023-04-25T13:25:36;5.93;;;4.80;;
26106;SDS011;13866;50.748;12.630;2023-04-25T13:28:02;5.67;;;5.17;;
26106;SDS011;13866;50.748;12.630;2023-04-25T13:30:28;7.07;;;5.57;;
26106;SDS011;13866;50.748;12.630;2023-04-25T13:32:53;14.13;;;4.87;;
26106;SDS011;13866;50.748;12.630;2023-04-25T13:35:21;10.00;;;6.60;;
26106;SDS011;13866;50.748;12.630;2023-04-25T13:37:47;5.80;;;5.43;;
26106;SDS011;13866;50.748;12.630;2023-04-25T13:40:12;7.60;;;4.67;;
26106;SDS011;13866;50.748;12.630;2023-04-25T13:42:38;14.07;;;4.87;;
26106;SDS011;13866;50.748;12.630;2023-04-25T13:45:04;5.43;;;4.40;;
26106;SDS011;13866;50.748;12.630;2023-04-25T13:47:30;5.13;;;4.83;;
26106;SDS011;13866;50.748;12.630;2023-04-25T13:49:56;6.87;;;4.73;;
26106;SDS011;13866;50.748;12.630;2023-04-25T13:52:21;6.17;;;5.60;;
26106;SDS011;13866;50.748;12.630;2023-04-25T13:54:49;7.83;;;5.90;;
26106;SDS011;13866;50.748;12.630;2023-04-25T13:57:27;5.60;;;5.13;;
26106;SDS011;13866;50.748;12.630;2023-04-25T13:59:52;7.60;;;5.90;;
26106;SDS011;13866;50.748;12.630;2023-04-25T14:02:18;7.40;;;5.63;;
26106;SDS011;13866;50.748;12.630;2023-04-25T14:04:44;14.10;;;6.30;;
26106;SDS011;13866;50.748;12.630;2023-04-25T14:07:09;7.07;;;6.63;;
26106;SDS011;13866;50.748;12.630;2023-04-25T14:09:36;7.37;;;5.43;;
26106;SDS011;13866;50.748;12.630;2023-04-25T14:12:01;5.23;;;5.00;;
26106;SDS011;13866;50.748;12.630;2023-04-25T14:14:27;10.13;;;5.07;;
26106;SDS011;13866;50.748;12.630;2023-04-25T14:16:53;18.00;;;7.13;;
26106;SDS011;13866;50.748;12.630;2023-04-25T14:19:19;6.53;;;5.93;;
26106;SDS011;13866;50.748;12.630;2023-04-25T14:21:45;5.93;;;5.60;;
26106;SDS011;13866;50.748;12.630;2023-04-25T14:24:11;7.03;;;4.70;;
26106;SDS011;13866;50.748;12.630;2023-04-25T14:26:38;5.80;;;5.40;;
26106;SDS011;13866;50.748;12.630;2023-04-25T14:29:04;6.13;;;5.53;;
26106;SDS011;13866;50.748;12.630;2023-04-25T14:31:33;5.90;;;4.93;;
26106;SDS011;13866;50.748;12.630;2023-04-25T14:34:18;6.00;;;3.50;;
26106;SDS011;13866;50.748;12.630;2023-04-25T14:36:45;8.40;;;4.20;;
26106;SDS011;13866;50.748;12.630;2023-04-25T14:39:10;7.13;;;3.80;;
26106;SDS011;13866;50.748;12.630;2023-04-25T14:41:37;7.03;;;2.50;;